OPLA/LHE METAR and TAF weather

Enter ICAO airport designator
Station Type Date Time Source
OPLA METAR 2021/10/20 06:25 UTC NOAA

OPLA 200625Z 28006KT 4000 HZ NSC 31/13 Q1012 NOSIG RMK QFE985 A29.90


Station Type Date Time Source
OPLA Decoded METAR 2021/10/20 06:25 UTC NOAA

Lahore Airport, Pakistan (OPLA) 31-31N 074-24E 217M
Oct 20, 2021 - 02:25 AM EDT / 2021.10.20 0625 UTC
Wind: from the W (280 degrees) at 7 MPH (6 KT):0
Visibility: 2 mile(s):0
Weather: haze
Temperature: 87 F (31 C)
Dew Point: 55 F (13 C)
Relative Humidity: 33%
Pressure (altimeter): 29.88 in. Hg (1012 hPa)
ob: OPLA 200625Z 28006KT 4000 HZ NSC 31/13 Q1012 NOSIG RMK QFE985 A29.90
cycle: 6

Station Type Date Time Source
OPLA TAF 2021/10/20 06:57 UTC NOAA

TAF OPLA 200345Z 2006/2112 31009KT 4000 FU NSC TX33/2110Z TN20/2101Z
FM201500 19006KT 4000 FU NSC
TEMPO 2100/2103 32004KT 1500 FU
FM210600 30006KT 4000 HZ NSC

Example: see airport list